sensor_id;sensor_type;location;lat;lon;timestamp;P1;durP1;ratioP1;P2;durP2;ratioP2
3036;SDS011;1528;52.550;13.408;2022-12-07T00:02:43;17.43;;;16.23;;
3036;SDS011;1528;52.550;13.408;2022-12-07T00:05:29;19.33;;;18.03;;
3036;SDS011;1528;52.550;13.408;2022-12-07T00:08:15;19.27;;;17.97;;
3036;SDS011;1528;52.550;13.408;2022-12-07T00:11:01;20.43;;;19.20;;
3036;SDS011;1528;52.550;13.408;2022-12-07T00:13:50;19.67;;;18.17;;
3036;SDS011;1528;52.550;13.408;2022-12-07T00:16:36;22.07;;;20.47;;
3036;SDS011;1528;52.550;13.408;2022-12-07T00:19:21;20.73;;;19.07;;
3036;SDS011;1528;52.550;13.408;2022-12-07T00:22:07;18.57;;;17.20;;
3036;SDS011;1528;52.550;13.408;2022-12-07T00:24:53;18.77;;;17.33;;
3036;SDS011;1528;52.550;13.408;2022-12-07T00:27:38;17.00;;;15.80;;
3036;SDS011;1528;52.550;13.408;2022-12-07T00:30:25;18.73;;;17.47;;
3036;SDS011;1528;52.550;13.408;2022-12-07T00:33:11;19.83;;;18.37;;
3036;SDS011;1528;52.550;13.408;2022-12-07T00:35:56;19.90;;;18.70;;
3036;SDS011;1528;52.550;13.408;2022-12-07T00:38:42;18.63;;;17.40;;
3036;SDS011;1528;52.550;13.408;2022-12-07T00:41:28;19.27;;;18.00;;
3036;SDS011;1528;52.550;13.408;2022-12-07T00:44:14;19.77;;;18.37;;
3036;SDS011;1528;52.550;13.408;2022-12-07T00:47:00;17.90;;;16.70;;
3036;SDS011;1528;52.550;13.408;2022-12-07T00:49:46;18.67;;;17.47;;
3036;SDS011;1528;52.550;13.408;2022-12-07T00:52:31;17.60;;;16.30;;
3036;SDS011;1528;52.550;13.408;2022-12-07T00:55:17;19.77;;;18.47;;
3036;SDS011;1528;52.550;13.408;2022-12-07T00:58:03;18.93;;;17.73;;
3036;SDS011;1528;52.550;13.408;2022-12-07T01:00:49;19.43;;;18.13;;
3036;SDS011;1528;52.550;13.408;2022-12-07T01:03:36;20.30;;;19.10;;
3036;SDS011;1528;52.550;13.408;2022-12-07T01:06:22;19.97;;;18.70;;
3036;SDS011;1528;52.550;13.408;2022-12-07T01:09:09;22.10;;;20.80;;
3036;SDS011;1528;52.550;13.408;2022-12-07T01:11:54;19.17;;;18.00;;
3036;SDS011;1528;52.550;13.408;2022-12-07T01:14:41;19.20;;;18.00;;
3036;SDS011;1528;52.550;13.408;2022-12-07T01:17:26;17.87;;;16.77;;
3036;SDS011;1528;52.550;13.408;2022-12-07T01:20:15;17.53;;;16.40;;
3036;SDS011;1528;52.550;13.408;2022-12-07T01:23:00;17.43;;;16.33;;
3036;SDS011;1528;52.550;13.408;2022-12-07T01:25:45;18.50;;;17.40;;
3036;SDS011;1528;52.550;13.408;2022-12-07T01:28:39;16.83;;;15.73;;
3036;SDS011;1528;52.550;13.408;2022-12-07T01:31:25;17.27;;;16.13;;
3036;SDS011;1528;52.550;13.408;2022-12-07T01:34:12;18.47;;;17.30;;
3036;SDS011;1528;52.550;13.408;2022-12-07T01:36:59;19.07;;;17.97;;
3036;SDS011;1528;52.550;13.408;2022-12-07T01:39:47;17.43;;;16.33;;
3036;SDS011;1528;52.550;13.408;2022-12-07T01:42:33;16.37;;;15.43;;
3036;SDS011;1528;52.550;13.408;2022-12-07T01:48:31;20.40;;;19.23;;
3036;SDS011;1528;52.550;13.408;2022-12-07T01:51:19;17.67;;;16.67;;
3036;SDS011;1528;52.550;13.408;2022-12-07T01:54:05;18.13;;;17.07;;
3036;SDS011;1528;52.550;13.408;2022-12-07T01:56:53;19.50;;;18.13;;
3036;SDS011;1528;52.550;13.408;2022-12-07T01:59:41;17.37;;;16.37;;
3036;SDS011;1528;52.550;13.408;2022-12-07T02:02:30;17.13;;;16.03;;
3036;SDS011;1528;52.550;13.408;2022-12-07T02:05:18;19.07;;;18.07;;
3036;SDS011;1528;52.550;13.408;2022-12-07T02:08:04;18.07;;;17.07;;
3036;SDS011;1528;52.550;13.408;2022-12-07T02:10:52;17.43;;;16.43;;
3036;SDS011;1528;52.550;13.408;2022-12-07T02:13:38;17.97;;;17.07;;
3036;SDS011;1528;52.550;13.408;2022-12-07T02:16:27;17.57;;;16.60;;
3036;SDS011;1528;52.550;13.408;2022-12-07T02:23:00;16.70;;;15.80;;
3036;SDS011;1528;52.550;13.408;2022-12-07T02:29:19;16.30;;;15.10;;
3036;SDS011;1528;52.550;13.408;2022-12-07T02:32:08;16.33;;;15.33;;
3036;SDS011;1528;52.550;13.408;2022-12-07T02:34:58;17.50;;;16.30;;
3036;SDS011;1528;52.550;13.408;2022-12-07T02:37:56;15.73;;;14.73;;
3036;SDS011;1528;52.550;13.408;2022-12-07T02:40:47;18.73;;;17.70;;
3036;SDS011;1528;52.550;13.408;2022-12-07T02:43:38;18.10;;;17.10;;
3036;SDS011;1528;52.550;13.408;2022-12-07T02:46:28;16.40;;;15.40;;
3036;SDS011;1528;52.550;13.408;2022-12-07T02:49:17;18.03;;;16.90;;
3036;SDS011;1528;52.550;13.408;2022-12-07T02:52:03;19.87;;;18.80;;
3036;SDS011;1528;52.550;13.408;2022-12-07T02:54:49;19.20;;;18.20;;
3036;SDS011;1528;52.550;13.408;2022-12-07T02:57:41;22.43;;;21.27;;
3036;SDS011;1528;52.550;13.408;2022-12-07T03:00:41;18.10;;;16.77;;
3036;SDS011;1528;52.550;13.408;2022-12-07T03:03:37;16.47;;;15.53;;
3036;SDS011;1528;52.550;13.408;2022-12-07T03:06:24;17.70;;;16.60;;
3036;SDS011;1528;52.550;13.408;2022-12-07T03:09:17;16.47;;;15.47;;
3036;SDS011;1528;52.550;13.408;2022-12-07T03:12:07;17.57;;;16.57;;
3036;SDS011;1528;52.550;13.408;2022-12-07T03:14:59;18.20;;;17.00;;
3036;SDS011;1528;52.550;13.408;2022-12-07T03:17:48;18.57;;;17.47;;
3036;SDS011;1528;52.550;13.408;2022-12-07T03:20:39;20.20;;;19.00;;
3036;SDS011;1528;52.550;13.408;2022-12-07T03:23:27;21.50;;;20.20;;
3036;SDS011;1528;52.550;13.408;2022-12-07T03:26:14;20.43;;;19.33;;
3036;SDS011;1528;52.550;13.408;2022-12-07T03:29:05;21.40;;;20.10;;
3036;SDS011;1528;52.550;13.408;2022-12-07T03:31:54;22.53;;;21.07;;
3036;SDS011;1528;52.550;13.408;2022-12-07T03:34:44;21.90;;;20.30;;
3036;SDS011;1528;52.550;13.408;2022-12-07T03:37:36;19.60;;;18.37;;
3036;SDS011;1528;52.550;13.408;2022-12-07T03:40:28;20.03;;;18.50;;
3036;SDS011;1528;52.550;13.408;2022-12-07T03:43:18;22.20;;;20.80;;
3036;SDS011;1528;52.550;13.408;2022-12-07T03:46:06;21.47;;;19.77;;
3036;SDS011;1528;52.550;13.408;2022-12-07T03:49:04;22.00;;;20.50;;
3036;SDS011;1528;52.550;13.408;2022-12-07T03:51:54;20.90;;;19.60;;
3036;SDS011;1528;52.550;13.408;2022-12-07T03:54:47;21.90;;;20.40;;
3036;SDS011;1528;52.550;13.408;2022-12-07T03:57:36;25.70;;;24.03;;
3036;SDS011;1528;52.550;13.408;2022-12-07T04:00:24;21.83;;;20.53;;
3036;SDS011;1528;52.550;13.408;2022-12-07T04:03:10;20.50;;;19.00;;
3036;SDS011;1528;52.550;13.408;2022-12-07T04:05:55;21.37;;;19.87;;
3036;SDS011;1528;52.550;13.408;2022-12-07T04:08:42;20.50;;;19.10;;
3036;SDS011;1528;52.550;13.408;2022-12-07T04:11:29;21.37;;;19.90;;
3036;SDS011;1528;52.550;13.408;2022-12-07T04:14:15;21.67;;;19.73;;
3036;SDS011;1528;52.550;13.408;2022-12-07T04:17:03;23.27;;;21.83;;
3036;SDS011;1528;52.550;13.408;2022-12-07T04:19:48;23.70;;;22.30;;
3036;SDS011;1528;52.550;13.408;2022-12-07T04:22:34;23.20;;;21.70;;
3036;SDS011;1528;52.550;13.408;2022-12-07T04:25:19;22.90;;;21.40;;
3036;SDS011;1528;52.550;13.408;2022-12-07T04:28:06;21.23;;;19.93;;
3036;SDS011;1528;52.550;13.408;2022-12-07T04:30:52;22.63;;;20.93;;
3036;SDS011;1528;52.550;13.408;2022-12-07T04:33:37;22.83;;;21.03;;
3036;SDS011;1528;52.550;13.408;2022-12-07T04:36:23;19.93;;;18.63;;
3036;SDS011;1528;52.550;13.408;2022-12-07T04:39:13;22.63;;;21.17;;
3036;SDS011;1528;52.550;13.408;2022-12-07T04:42:03;21.07;;;19.63;;
3036;SDS011;1528;52.550;13.408;2022-12-07T04:44:50;21.20;;;19.70;;
3036;SDS011;1528;52.550;13.408;2022-12-07T04:47:35;23.53;;;21.73;;
3036;SDS011;1528;52.550;13.408;2022-12-07T04:50:21;23.00;;;21.53;;
3036;SDS011;1528;52.550;13.408;2022-12-07T04:53:06;24.17;;;22.57;;
3036;SDS011;1528;52.550;13.408;2022-12-07T04:55:52;25.40;;;23.73;;
3036;SDS011;1528;52.550;13.408;2022-12-07T04:58:37;24.10;;;22.40;;
3036;SDS011;1528;52.550;13.408;2022-12-07T05:01:24;24.30;;;22.70;;
3036;SDS011;1528;52.550;13.408;2022-12-07T05:04:10;25.00;;;23.27;;
3036;SDS011;1528;52.550;13.408;2022-12-07T05:06:55;23.20;;;21.17;;
3036;SDS011;1528;52.550;13.408;2022-12-07T05:09:41;22.60;;;20.90;;
3036;SDS011;1528;52.550;13.408;2022-12-07T05:12:26;25.67;;;23.57;;
3036;SDS011;1528;52.550;13.408;2022-12-07T05:15:12;28.53;;;26.33;;
3036;SDS011;1528;52.550;13.408;2022-12-07T05:17:59;27.77;;;25.10;;
3036;SDS011;1528;52.550;13.408;2022-12-07T05:20:45;28.57;;;26.30;;
3036;SDS011;1528;52.550;13.408;2022-12-07T05:23:30;30.00;;;27.83;;
3036;SDS011;1528;52.550;13.408;2022-12-07T05:26:16;29.90;;;27.43;;
3036;SDS011;1528;52.550;13.408;2022-12-07T05:29:02;29.23;;;26.83;;
3036;SDS011;1528;52.550;13.408;2022-12-07T05:31:48;29.63;;;27.23;;
3036;SDS011;1528;52.550;13.408;2022-12-07T05:34:34;31.07;;;28.57;;
3036;SDS011;1528;52.550;13.408;2022-12-07T05:37:20;29.43;;;26.63;;
3036;SDS011;1528;52.550;13.408;2022-12-07T05:40:06;28.10;;;25.50;;
3036;SDS011;1528;52.550;13.408;2022-12-07T05:42:52;28.53;;;25.57;;
3036;SDS011;1528;52.550;13.408;2022-12-07T05:45:39;30.67;;;28.07;;
3036;SDS011;1528;52.550;13.408;2022-12-07T05:48:25;29.63;;;27.13;;
3036;SDS011;1528;52.550;13.408;2022-12-07T05:51:12;31.83;;;28.70;;
3036;SDS011;1528;52.550;13.408;2022-12-07T05:53:57;31.40;;;29.03;;
3036;SDS011;1528;52.550;13.408;2022-12-07T05:56:43;31.93;;;29.23;;
3036;SDS011;1528;52.550;13.408;2022-12-07T05:59:28;28.40;;;25.93;;
3036;SDS011;1528;52.550;13.408;2022-12-07T06:02:13;30.30;;;27.70;;
3036;SDS011;1528;52.550;13.408;2022-12-07T06:05:00;29.77;;;27.07;;
3036;SDS011;1528;52.550;13.408;2022-12-07T06:07:47;29.40;;;27.00;;
3036;SDS011;1528;52.550;13.408;2022-12-07T06:10:32;28.43;;;25.73;;
3036;SDS011;1528;52.550;13.408;2022-12-07T06:13:18;30.77;;;28.07;;
3036;SDS011;1528;52.550;13.408;2022-12-07T06:16:03;30.03;;;27.17;;
3036;SDS011;1528;52.550;13.408;2022-12-07T06:18:49;29.80;;;27.27;;
3036;SDS011;1528;52.550;13.408;2022-12-07T06:21:35;29.40;;;26.70;;
3036;SDS011;1528;52.550;13.408;2022-12-07T06:24:22;29.20;;;26.67;;
3036;SDS011;1528;52.550;13.408;2022-12-07T06:27:08;29.23;;;26.40;;
3036;SDS011;1528;52.550;13.408;2022-12-07T06:29:53;29.30;;;26.80;;
3036;SDS011;1528;52.550;13.408;2022-12-07T06:32:39;26.07;;;23.70;;
3036;SDS011;1528;52.550;13.408;2022-12-07T06:35:25;28.33;;;25.93;;
3036;SDS011;1528;52.550;13.408;2022-12-07T06:38:10;31.20;;;28.53;;
3036;SDS011;1528;52.550;13.408;2022-12-07T06:40:57;29.07;;;26.00;;
3036;SDS011;1528;52.550;13.408;2022-12-07T06:43:42;28.80;;;26.13;;
3036;SDS011;1528;52.550;13.408;2022-12-07T06:46:28;29.50;;;26.97;;
3036;SDS011;1528;52.550;13.408;2022-12-07T06:49:14;29.93;;;27.03;;
3036;SDS011;1528;52.550;13.408;2022-12-07T06:52:00;28.37;;;25.97;;
3036;SDS011;1528;52.550;13.408;2022-12-07T06:54:46;33.07;;;30.07;;
3036;SDS011;1528;52.550;13.408;2022-12-07T06:57:32;32.70;;;29.73;;
3036;SDS011;1528;52.550;13.408;2022-12-07T07:00:18;30.27;;;27.57;;
3036;SDS011;1528;52.550;13.408;2022-12-07T07:03:04;31.40;;;28.30;;
3036;SDS011;1528;52.550;13.408;2022-12-07T07:05:50;30.10;;;27.40;;
3036;SDS011;1528;52.550;13.408;2022-12-07T07:08:36;29.33;;;25.40;;
3036;SDS011;1528;52.550;13.408;2022-12-07T07:11:22;32.60;;;29.70;;
3036;SDS011;1528;52.550;13.408;2022-12-07T07:14:09;31.67;;;28.97;;
3036;SDS011;1528;52.550;13.408;2022-12-07T07:16:54;31.53;;;28.90;;
3036;SDS011;1528;52.550;13.408;2022-12-07T07:19:40;32.53;;;29.70;;
3036;SDS011;1528;52.550;13.408;2022-12-07T07:22:25;33.37;;;30.67;;
3036;SDS011;1528;52.550;13.408;2022-12-07T07:25:10;33.00;;;29.90;;
3036;SDS011;1528;52.550;13.408;2022-12-07T07:27:56;32.13;;;29.47;;
3036;SDS011;1528;52.550;13.408;2022-12-07T07:30:43;30.60;;;28.07;;
3036;SDS011;1528;52.550;13.408;2022-12-07T07:33:28;32.60;;;29.70;;
3036;SDS011;1528;52.550;13.408;2022-12-07T07:36:13;28.73;;;26.33;;
3036;SDS011;1528;52.550;13.408;2022-12-07T07:38:59;28.70;;;25.93;;
3036;SDS011;1528;52.550;13.408;2022-12-07T07:41:45;24.23;;;22.13;;
3036;SDS011;1528;52.550;13.408;2022-12-07T07:44:31;26.47;;;24.33;;
3036;SDS011;1528;52.550;13.408;2022-12-07T07:47:18;25.37;;;23.30;;
3036;SDS011;1528;52.550;13.408;2022-12-07T07:50:04;24.60;;;22.73;;
3036;SDS011;1528;52.550;13.408;2022-12-07T07:52:50;27.87;;;25.90;;
3036;SDS011;1528;52.550;13.408;2022-12-07T07:55:36;23.77;;;22.07;;
3036;SDS011;1528;52.550;13.408;2022-12-07T07:58:21;24.87;;;22.83;;
3036;SDS011;1528;52.550;13.408;2022-12-07T08:01:06;24.77;;;23.07;;
3036;SDS011;1528;52.550;13.408;2022-12-07T08:03:53;24.17;;;22.47;;
3036;SDS011;1528;52.550;13.408;2022-12-07T08:06:39;20.63;;;19.00;;
3036;SDS011;1528;52.550;13.408;2022-12-07T08:09:25;25.17;;;23.83;;
3036;SDS011;1528;52.550;13.408;2022-12-07T08:12:11;20.70;;;19.13;;
3036;SDS011;1528;52.550;13.408;2022-12-07T08:14:56;21.90;;;20.30;;
3036;SDS011;1528;52.550;13.408;2022-12-07T08:17:42;20.70;;;19.40;;
3036;SDS011;1528;52.550;13.408;2022-12-07T08:20:29;21.30;;;19.83;;
3036;SDS011;1528;52.550;13.408;2022-12-07T08:23:14;21.03;;;19.50;;
3036;SDS011;1528;52.550;13.408;2022-12-07T08:25:59;19.07;;;17.93;;
3036;SDS011;1528;52.550;13.408;2022-12-07T08:28:45;19.67;;;18.07;;
3036;SDS011;1528;52.550;13.408;2022-12-07T08:31:31;19.47;;;18.47;;
3036;SDS011;1528;52.550;13.408;2022-12-07T08:34:16;18.03;;;17.03;;
3036;SDS011;1528;52.550;13.408;2022-12-07T08:37:03;16.40;;;15.60;;
3036;SDS011;1528;52.550;13.408;2022-12-07T08:39:49;19.97;;;18.90;;
3036;SDS011;1528;52.550;13.408;2022-12-07T08:42:34;19.97;;;18.70;;
3036;SDS011;1528;52.550;13.408;2022-12-07T08:45:23;16.33;;;15.53;;
3036;SDS011;1528;52.550;13.408;2022-12-07T08:48:10;17.83;;;16.77;;
3036;SDS011;1528;52.550;13.408;2022-12-07T08:50:58;15.53;;;14.63;;
3036;SDS011;1528;52.550;13.408;2022-12-07T08:53:46;15.93;;;15.00;;
3036;SDS011;1528;52.550;13.408;2022-12-07T08:56:33;15.83;;;15.03;;
3036;SDS011;1528;52.550;13.408;2022-12-07T08:59:19;14.30;;;13.43;;
3036;SDS011;1528;52.550;13.408;2022-12-07T09:02:06;15.50;;;14.60;;
3036;SDS011;1528;52.550;13.408;2022-12-07T09:04:51;14.97;;;14.33;;
3036;SDS011;1528;52.550;13.408;2022-12-07T09:07:37;17.20;;;16.53;;
3036;SDS011;1528;52.550;13.408;2022-12-07T09:10:25;16.30;;;15.60;;
3036;SDS011;1528;52.550;13.408;2022-12-07T09:13:10;15.63;;;14.93;;
3036;SDS011;1528;52.550;13.408;2022-12-07T09:15:56;14.10;;;13.50;;
3036;SDS011;1528;52.550;13.408;2022-12-07T09:18:41;15.73;;;14.93;;
3036;SDS011;1528;52.550;13.408;2022-12-07T09:21:27;13.70;;;13.20;;
3036;SDS011;1528;52.550;13.408;2022-12-07T09:24:13;18.80;;;18.00;;
3036;SDS011;1528;52.550;13.408;2022-12-07T09:27:00;14.80;;;14.30;;
3036;SDS011;1528;52.550;13.408;2022-12-07T09:29:45;17.93;;;17.13;;
3036;SDS011;1528;52.550;13.408;2022-12-07T09:32:31;16.50;;;15.90;;
3036;SDS011;1528;52.550;13.408;2022-12-07T09:35:16;15.83;;;15.03;;
3036;SDS011;1528;52.550;13.408;2022-12-07T09:38:02;13.53;;;13.03;;
3036;SDS011;1528;52.550;13.408;2022-12-07T09:40:47;19.27;;;18.47;;
3036;SDS011;1528;52.550;13.408;2022-12-07T09:43:35;14.87;;;14.27;;
3036;SDS011;1528;52.550;13.408;2022-12-07T09:46:23;12.23;;;11.63;;
3036;SDS011;1528;52.550;13.408;2022-12-07T09:49:10;13.23;;;12.73;;
3036;SDS011;1528;52.550;13.408;2022-12-07T09:52:00;11.93;;;11.37;;
3036;SDS011;1528;52.550;13.408;2022-12-07T09:54:48;13.07;;;12.50;;
3036;SDS011;1528;52.550;13.408;2022-12-07T09:57:35;14.73;;;14.13;;
3036;SDS011;1528;52.550;13.408;2022-12-07T10:00:22;12.07;;;11.47;;
3036;SDS011;1528;52.550;13.408;2022-12-07T10:03:08;11.00;;;10.60;;
3036;SDS011;1528;52.550;13.408;2022-12-07T10:05:56;10.73;;;10.33;;
3036;SDS011;1528;52.550;13.408;2022-12-07T10:08:41;10.00;;;9.60;;
3036;SDS011;1528;52.550;13.408;2022-12-07T10:11:27;12.57;;;12.07;;
3036;SDS011;1528;52.550;13.408;2022-12-07T10:14:13;15.10;;;14.60;;
3036;SDS011;1528;52.550;13.408;2022-12-07T10:16:59;12.60;;;12.10;;
3036;SDS011;1528;52.550;13.408;2022-12-07T10:19:45;12.70;;;12.20;;
3036;SDS011;1528;52.550;13.408;2022-12-07T10:22:31;13.50;;;12.90;;
3036;SDS011;1528;52.550;13.408;2022-12-07T10:25:17;11.00;;;10.50;;
3036;SDS011;1528;52.550;13.408;2022-12-07T10:28:12;11.20;;;10.80;;
3036;SDS011;1528;52.550;13.408;2022-12-07T10:31:03;11.87;;;11.37;;
3036;SDS011;1528;52.550;13.408;2022-12-07T10:34:02;10.60;;;10.10;;
3036;SDS011;1528;52.550;13.408;2022-12-07T10:36:48;10.87;;;10.30;;
3036;SDS011;1528;52.550;13.408;2022-12-07T10:39:39;11.77;;;11.30;;
3036;SDS011;1528;52.550;13.408;2022-12-07T10:42:27;14.07;;;13.47;;
3036;SDS011;1528;52.550;13.408;2022-12-07T10:45:15;12.27;;;11.77;;
3036;SDS011;1528;52.550;13.408;2022-12-07T10:48:04;11.87;;;11.43;;
3036;SDS011;1528;52.550;13.408;2022-12-07T10:51:03;10.00;;;9.60;;
3036;SDS011;1528;52.550;13.408;2022-12-07T10:53:58;12.87;;;12.17;;
3036;SDS011;1528;52.550;13.408;2022-12-07T11:00:18;12.10;;;11.70;;
3036;SDS011;1528;52.550;13.408;2022-12-07T11:03:15;14.27;;;13.67;;
3036;SDS011;1528;52.550;13.408;2022-12-07T11:06:19;15.80;;;15.00;;
3036;SDS011;1528;52.550;13.408;2022-12-07T11:09:26;16.73;;;15.80;;
3036;SDS011;1528;52.550;13.408;2022-12-07T11:12:36;18.23;;;17.53;;
3036;SDS011;1528;52.550;13.408;2022-12-07T11:15:32;13.80;;;13.10;;
3036;SDS011;1528;52.550;13.408;2022-12-07T11:18:27;16.43;;;15.77;;
3036;SDS011;1528;52.550;13.408;2022-12-07T11:21:20;13.37;;;12.77;;
3036;SDS011;1528;52.550;13.408;2022-12-07T11:24:17;15.97;;;15.20;;
3036;SDS011;1528;52.550;13.408;2022-12-07T11:27:07;15.00;;;14.30;;
3036;SDS011;1528;52.550;13.408;2022-12-07T11:30:03;15.60;;;14.83;;
3036;SDS011;1528;52.550;13.408;2022-12-07T11:33:00;19.27;;;18.30;;
3036;SDS011;1528;52.550;13.408;2022-12-07T11:35:56;18.60;;;17.80;;
3036;SDS011;1528;52.550;13.408;2022-12-07T11:38:50;15.20;;;14.40;;
3036;SDS011;1528;52.550;13.408;2022-12-07T11:41:39;17.33;;;16.57;;
3036;SDS011;1528;52.550;13.408;2022-12-07T11:44:28;20.40;;;19.40;;
3036;SDS011;1528;52.550;13.408;2022-12-07T11:47:20;19.20;;;18.20;;
3036;SDS011;1528;52.550;13.408;2022-12-07T11:50:16;16.77;;;15.83;;
3036;SDS011;1528;52.550;13.408;2022-12-07T11:53:14;12.70;;;12.17;;
3036;SDS011;1528;52.550;13.408;2022-12-07T11:56:06;14.17;;;13.53;;
3036;SDS011;1528;52.550;13.408;2022-12-07T11:58:57;17.07;;;16.10;;
3036;SDS011;1528;52.550;13.408;2022-12-07T12:01:52;18.30;;;17.40;;
3036;SDS011;1528;52.550;13.408;2022-12-07T12:04:45;16.37;;;15.47;;
3036;SDS011;1528;52.550;13.408;2022-12-07T12:07:35;17.73;;;16.93;;
3036;SDS011;1528;52.550;13.408;2022-12-07T12:10:24;16.13;;;15.43;;
3036;SDS011;1528;52.550;13.408;2022-12-07T12:13:23;17.00;;;16.10;;
3036;SDS011;1528;52.550;13.408;2022-12-07T12:16:49;16.13;;;15.33;;
3036;SDS011;1528;52.550;13.408;2022-12-07T12:19:59;16.47;;;15.67;;
3036;SDS011;1528;52.550;13.408;2022-12-07T12:22:48;17.47;;;16.47;;
3036;SDS011;1528;52.550;13.408;2022-12-07T12:25:38;19.03;;;18.13;;
3036;SDS011;1528;52.550;13.408;2022-12-07T12:28:29;16.43;;;15.67;;
3036;SDS011;1528;52.550;13.408;2022-12-07T12:31:29;17.50;;;16.63;;
3036;SDS011;1528;52.550;13.408;2022-12-07T12:34:30;15.67;;;14.90;;
3036;SDS011;1528;52.550;13.408;2022-12-07T12:37:38;17.63;;;16.83;;
3036;SDS011;1528;52.550;13.408;2022-12-07T12:40:38;14.63;;;13.83;;
3036;SDS011;1528;52.550;13.408;2022-12-07T12:49:35;17.57;;;16.57;;
3036;SDS011;1528;52.550;13.408;2022-12-07T12:56:09;16.33;;;15.53;;
3036;SDS011;1528;52.550;13.408;2022-12-07T12:59:21;14.63;;;13.70;;
3036;SDS011;1528;52.550;13.408;2022-12-07T13:02:15;15.00;;;14.17;;
3036;SDS011;1528;52.550;13.408;2022-12-07T13:05:14;14.40;;;13.37;;
3036;SDS011;1528;52.550;13.408;2022-12-07T13:08:03;15.93;;;15.13;;
3036;SDS011;1528;52.550;13.408;2022-12-07T13:17:56;14.33;;;13.63;;
3036;SDS011;1528;52.550;13.408;2022-12-07T13:20:46;17.70;;;16.60;;
3036;SDS011;1528;52.550;13.408;2022-12-07T13:23:36;16.03;;;15.23;;
3036;SDS011;1528;52.550;13.408;2022-12-07T13:26:23;15.83;;;15.03;;
3036;SDS011;1528;52.550;13.408;2022-12-07T13:29:19;14.77;;;13.80;;
3036;SDS011;1528;52.550;13.408;2022-12-07T13:32:17;14.33;;;13.53;;
3036;SDS011;1528;52.550;13.408;2022-12-07T13:35:28;14.77;;;13.53;;
3036;SDS011;1528;52.550;13.408;2022-12-07T13:38:18;14.40;;;13.40;;
3036;SDS011;1528;52.550;13.408;2022-12-07T13:41:12;13.27;;;12.57;;
3036;SDS011;1528;52.550;13.408;2022-12-07T13:44:00;15.03;;;13.80;;
3036;SDS011;1528;52.550;13.408;2022-12-07T13:46:56;13.83;;;13.10;;
3036;SDS011;1528;52.550;13.408;2022-12-07T13:49:48;14.33;;;13.73;;
3036;SDS011;1528;52.550;13.408;2022-12-07T13:52:35;16.13;;;15.33;;
3036;SDS011;1528;52.550;13.408;2022-12-07T13:55:28;13.93;;;12.70;;
3036;SDS011;1528;52.550;13.408;2022-12-07T13:58:14;16.00;;;15.30;;
3036;SDS011;1528;52.550;13.408;2022-12-07T14:01:00;13.50;;;12.80;;
3036;SDS011;1528;52.550;13.408;2022-12-07T14:03:46;16.20;;;14.93;;
3036;SDS011;1528;52.550;13.408;2022-12-07T14:06:33;17.27;;;16.40;;
3036;SDS011;1528;52.550;13.408;2022-12-07T14:09:19;15.18;;;14.38;;
3036;SDS011;1528;52.550;13.408;2022-12-07T14:12:06;17.83;;;17.13;;
3036;SDS011;1528;52.550;13.408;2022-12-07T14:14:52;13.77;;;13.07;;
3036;SDS011;1528;52.550;13.408;2022-12-07T14:17:38;17.17;;;16.27;;
3036;SDS011;1528;52.550;13.408;2022-12-07T14:20:35;16.43;;;15.73;;
3036;SDS011;1528;52.550;13.408;2022-12-07T14:23:25;16.33;;;15.63;;
3036;SDS011;1528;52.550;13.408;2022-12-07T14:26:12;20.03;;;19.13;;
3036;SDS011;1528;52.550;13.408;2022-12-07T14:32:22;19.73;;;18.87;;
3036;SDS011;1528;52.550;13.408;2022-12-07T14:35:12;17.63;;;16.83;;
3036;SDS011;1528;52.550;13.408;2022-12-07T14:37:59;16.63;;;15.83;;
3036;SDS011;1528;52.550;13.408;2022-12-07T14:40:46;16.03;;;15.33;;
3036;SDS011;1528;52.550;13.408;2022-12-07T14:43:32;18.50;;;17.70;;
3036;SDS011;1528;52.550;13.408;2022-12-07T14:46:17;16.07;;;15.33;;
3036;SDS011;1528;52.550;13.408;2022-12-07T14:49:02;18.60;;;17.80;;
3036;SDS011;1528;52.550;13.408;2022-12-07T14:51:49;14.30;;;13.60;;
3036;SDS011;1528;52.550;13.408;2022-12-07T14:54:34;15.13;;;14.43;;
3036;SDS011;1528;52.550;13.408;2022-12-07T14:57:21;15.73;;;14.83;;
3036;SDS011;1528;52.550;13.408;2022-12-07T15:00:08;17.27;;;16.57;;
3036;SDS011;1528;52.550;13.408;2022-12-07T15:02:58;19.00;;;17.83;;
3036;SDS011;1528;52.550;13.408;2022-12-07T15:05:44;18.90;;;17.93;;
3036;SDS011;1528;52.550;13.408;2022-12-07T15:08:29;24.00;;;22.70;;
3036;SDS011;1528;52.550;13.408;2022-12-07T15:11:15;17.60;;;16.80;;
3036;SDS011;1528;52.550;13.408;2022-12-07T15:14:03;17.90;;;16.90;;
3036;SDS011;1528;52.550;13.408;2022-12-07T15:16:56;19.40;;;18.33;;
3036;SDS011;1528;52.550;13.408;2022-12-07T15:19:42;15.37;;;14.20;;
3036;SDS011;1528;52.550;13.408;2022-12-07T15:22:27;14.33;;;13.47;;
3036;SDS011;1528;52.550;13.408;2022-12-07T15:25:15;14.20;;;13.60;;
3036;SDS011;1528;52.550;13.408;2022-12-07T15:28:00;15.90;;;15.20;;
3036;SDS011;1528;52.550;13.408;2022-12-07T15:30:47;15.80;;;14.90;;
3036;SDS011;1528;52.550;13.408;2022-12-07T15:33:33;18.30;;;17.43;;
3036;SDS011;1528;52.550;13.408;2022-12-07T15:36:19;15.40;;;14.53;;
3036;SDS011;1528;52.550;13.408;2022-12-07T15:39:06;18.40;;;17.30;;
3036;SDS011;1528;52.550;13.408;2022-12-07T15:41:52;15.93;;;15.33;;
3036;SDS011;1528;52.550;13.408;2022-12-07T15:44:38;15.60;;;14.70;;
3036;SDS011;1528;52.550;13.408;2022-12-07T15:47:43;16.27;;;15.30;;
3036;SDS011;1528;52.550;13.408;2022-12-07T15:50:29;16.63;;;15.83;;
3036;SDS011;1528;52.550;13.408;2022-12-07T15:53:15;15.43;;;14.63;;
3036;SDS011;1528;52.550;13.408;2022-12-07T15:56:00;15.83;;;14.93;;
3036;SDS011;1528;52.550;13.408;2022-12-07T15:58:50;13.43;;;12.70;;
3036;SDS011;1528;52.550;13.408;2022-12-07T16:01:35;16.30;;;15.30;;
3036;SDS011;1528;52.550;13.408;2022-12-07T16:04:22;16.23;;;15.47;;
3036;SDS011;1528;52.550;13.408;2022-12-07T16:07:08;16.30;;;15.53;;
3036;SDS011;1528;52.550;13.408;2022-12-07T16:09:55;14.30;;;13.30;;
3036;SDS011;1528;52.550;13.408;2022-12-07T16:12:40;14.07;;;13.23;;
3036;SDS011;1528;52.550;13.408;2022-12-07T16:15:26;14.37;;;13.43;;
3036;SDS011;1528;52.550;13.408;2022-12-07T16:18:11;15.57;;;14.20;;
3036;SDS011;1528;52.550;13.408;2022-12-07T16:20:58;13.70;;;12.90;;
3036;SDS011;1528;52.550;13.408;2022-12-07T16:23:44;17.27;;;16.40;;
3036;SDS011;1528;52.550;13.408;2022-12-07T16:26:35;15.57;;;14.80;;
3036;SDS011;1528;52.550;13.408;2022-12-07T16:29:29;13.40;;;12.70;;
3036;SDS011;1528;52.550;13.408;2022-12-07T16:32:14;11.30;;;10.60;;
3036;SDS011;1528;52.550;13.408;2022-12-07T16:35:00;12.50;;;11.90;;
3036;SDS011;1528;52.550;13.408;2022-12-07T16:37:47;14.10;;;13.30;;
3036;SDS011;1528;52.550;13.408;2022-12-07T16:40:32;13.73;;;12.83;;
3036;SDS011;1528;52.550;13.408;2022-12-07T16:43:18;13.43;;;12.83;;
3036;SDS011;1528;52.550;13.408;2022-12-07T16:46:04;15.87;;;14.47;;
3036;SDS011;1528;52.550;13.408;2022-12-07T16:48:49;18.23;;;17.20;;
3036;SDS011;1528;52.550;13.408;2022-12-07T16:51:35;13.73;;;12.73;;
3036;SDS011;1528;52.550;13.408;2022-12-07T16:54:22;16.67;;;15.40;;
3036;SDS011;1528;52.550;13.408;2022-12-07T16:57:07;13.80;;;12.80;;
3036;SDS011;1528;52.550;13.408;2022-12-07T16:59:53;15.10;;;13.83;;
3036;SDS011;1528;52.550;13.408;2022-12-07T17:02:38;16.30;;;15.27;;
3036;SDS011;1528;52.550;13.408;2022-12-07T17:05:24;18.90;;;17.73;;
3036;SDS011;1528;52.550;13.408;2022-12-07T17:08:12;15.80;;;14.73;;
3036;SDS011;1528;52.550;13.408;2022-12-07T17:10:59;18.93;;;17.50;;
3036;SDS011;1528;52.550;13.408;2022-12-07T17:13:44;26.43;;;23.67;;
3036;SDS011;1528;52.550;13.408;2022-12-07T17:16:48;16.70;;;16.00;;